createdAt,value
2022-12-08T00:00:10.187Z,95.67
2022-12-08T00:01:17.925Z,95.66
2022-12-08T00:02:20.911Z,95.54
2022-12-08T00:03:23.926Z,95.39
2022-12-08T00:04:26.862Z,95.49
2022-12-08T00:05:48.342Z,95.70
2022-12-08T00:07:10.781Z,96.17
2022-12-08T00:08:32.485Z,95.96
2022-12-08T00:09:39.802Z,95.43
2022-12-08T00:10:49.937Z,94.86
2022-12-08T00:11:56.509Z,94.12
2022-12-08T00:12:59.233Z,93.90
2022-12-08T00:14:02.121Z,93.58
2022-12-08T00:15:05.435Z,92.99
2022-12-08T00:16:08.813Z,93.05
2022-12-08T00:17:14.260Z,93.34
2022-12-08T00:18:17.291Z,93.92
2022-12-08T00:19:20.369Z,94.30
2022-12-08T00:20:23.027Z,94.60
2022-12-08T00:21:25.686Z,93.88
2022-12-08T00:22:29.379Z,93.50
2022-12-08T00:23:35.523Z,93.04
2022-12-08T00:24:40.049Z,92.80
2022-12-08T00:25:42.797Z,92.73
2022-12-08T00:26:45.688Z,92.79
2022-12-08T00:27:48.252Z,93.74
2022-12-08T00:28:51.448Z,94.75
2022-12-08T00:29:54.230Z,94.39
2022-12-08T00:30:56.861Z,94.55
2022-12-08T00:31:59.670Z,94.99
2022-12-08T00:33:02.370Z,95.03
2022-12-08T00:34:05.331Z,94.77
2022-12-08T00:35:08.428Z,95.26
2022-12-08T00:36:14.045Z,95.04
2022-12-08T00:37:16.846Z,94.84
2022-12-08T00:38:19.805Z,94.45
2022-12-08T00:39:22.488Z,94.25
2022-12-08T00:40:25.179Z,94.37
2022-12-08T00:41:47.813Z,95.17
2022-12-08T00:42:50.523Z,95.56
2022-12-08T00:43:53.180Z,95.83
2022-12-08T00:44:56.127Z,95.82
2022-12-08T00:45:58.817Z,95.62
2022-12-08T00:47:01.490Z,95.56
2022-12-08T00:48:04.351Z,95.71
2022-12-08T00:49:07.716Z,95.80
2022-12-08T00:50:11.249Z,95.77
2022-12-08T00:51:14.048Z,94.90
2022-12-08T00:52:16.717Z,94.94
2022-12-08T00:53:19.288Z,95.24
2022-12-08T00:54:23.252Z,95.14
2022-12-08T00:55:26.044Z,95.13
2022-12-08T00:56:28.775Z,95.05
2022-12-08T00:57:32.484Z,95.09
2022-12-08T00:58:35.207Z,94.65
2022-12-08T00:59:37.942Z,94.92
2022-12-08T01:00:42.116Z,94.91
2022-12-08T01:01:46.324Z,94.48
2022-12-08T01:02:49.374Z,94.34
2022-12-08T01:03:52.700Z,94.61
2022-12-08T01:04:55.619Z,94.62
2022-12-08T01:06:03.620Z,94.69
2022-12-08T01:07:06.845Z,94.58
2022-12-08T01:08:09.615Z,94.62
2022-12-08T01:09:14.254Z,94.00
2022-12-08T01:10:17.327Z,94.08
2022-12-08T01:11:20.289Z,93.97
2022-12-08T01:12:23.082Z,93.44
2022-12-08T01:13:25.821Z,93.64
2022-12-08T01:14:28.565Z,93.00
2022-12-08T01:15:31.327Z,92.66
2022-12-08T01:16:36.331Z,91.93
2022-12-08T01:17:39.324Z,92.23
2022-12-08T01:18:42.194Z,92.52
2022-12-08T01:19:44.889Z,92.05
2022-12-08T01:20:47.731Z,91.80
2022-12-08T01:21:50.323Z,91.74
2022-12-08T01:22:53.093Z,91.80
2022-12-08T01:23:59.135Z,91.42
2022-12-08T01:25:02.729Z,91.56
2022-12-08T01:26:07.447Z,91.47
2022-12-08T01:27:10.157Z,90.88
2022-12-08T01:28:13.248Z,91.24
2022-12-08T01:29:16.134Z,91.14
2022-12-08T01:30:19.731Z,91.26
2022-12-08T01:31:23.340Z,91.50
2022-12-08T01:32:26.113Z,91.28
2022-12-08T01:33:30.128Z,90.98
2022-12-08T01:34:36.486Z,91.23
2022-12-08T01:35:40.598Z,90.84
2022-12-08T01:36:44.644Z,91.21
2022-12-08T01:37:47.311Z,91.73
2022-12-08T01:38:51.167Z,91.87
2022-12-08T01:39:53.830Z,92.04
2022-12-08T01:40:56.474Z,91.90
2022-12-08T01:42:02.460Z,91.66
2022-12-08T01:43:06.630Z,92.46
2022-12-08T01:44:11.075Z,92.49
2022-12-08T01:45:27.036Z,91.67
2022-12-08T01:46:31.892Z,91.64
2022-12-08T01:47:43.111Z,91.65
2022-12-08T01:48:46.048Z,91.86
2022-12-08T01:49:48.957Z,92.07
2022-12-08T01:50:54.017Z,91.75
2022-12-08T01:52:14.958Z,92.00
2022-12-08T01:53:23.921Z,92.01
2022-12-08T01:54:31.944Z,92.35
2022-12-08T01:55:49.615Z,92.71
2022-12-08T01:57:04.752Z,92.71
2022-12-08T01:58:15.992Z,92.68
2022-12-08T01:59:19.449Z,92.81
2022-12-08T02:00:23.236Z,92.30
2022-12-08T02:01:26.122Z,92.50
2022-12-08T02:02:39.755Z,92.36
2022-12-08T02:04:01.134Z,92.35
2022-12-08T02:05:04.324Z,92.46
2022-12-08T02:06:07.564Z,92.58
2022-12-08T02:07:12.664Z,92.56
2022-12-08T02:08:15.606Z,92.20
2022-12-08T02:09:19.846Z,92.24
2022-12-08T02:10:24.889Z,93.19
2022-12-08T02:11:27.928Z,93.41
2022-12-08T02:12:30.849Z,93.69
2022-12-08T02:13:33.503Z,93.40
2022-12-08T02:14:36.178Z,93.45
2022-12-08T02:15:38.899Z,93.19
2022-12-08T02:16:52.908Z,93.66
2022-12-08T02:18:31.225Z,93.47
2022-12-08T02:19:58.685Z,93.15
2022-12-08T02:21:09.486Z,92.04
2022-12-08T02:22:14.603Z,92.69
2022-12-08T02:23:48.169Z,93.00
2022-12-08T02:25:09.292Z,92.10
2022-12-08T02:26:27.005Z,91.62
2022-12-08T02:28:04.652Z,91.57
2022-12-08T02:29:52.505Z,91.96
2022-12-08T02:31:52.152Z,91.71
2022-12-08T02:33:39.361Z,91.78
2022-12-08T02:35:05.436Z,92.40
2022-12-08T02:36:22.106Z,93.10
2022-12-08T02:37:32.988Z,93.75
2022-12-08T02:38:43.855Z,93.66
2022-12-08T02:39:58.454Z,93.62
2022-12-08T02:41:29.506Z,94.20
2022-12-08T02:42:35.366Z,94.86
2022-12-08T02:44:04.287Z,95.20
2022-12-08T02:45:14.888Z,95.35
2022-12-08T02:46:25.169Z,95.58
2022-12-08T02:47:29.582Z,95.55
2022-12-08T02:48:34.328Z,95.57
2022-12-08T02:49:36.974Z,95.94
2022-12-08T02:50:39.960Z,95.94
2022-12-08T02:51:42.807Z,96.01
2022-12-08T02:52:47.253Z,95.91
2022-12-08T02:53:51.810Z,95.53
2022-12-08T02:54:59.662Z,95.29
2022-12-08T02:56:29.848Z,95.31
2022-12-08T02:57:49.558Z,94.87
2022-12-08T02:59:18.400Z,94.94
2022-12-08T03:00:23.123Z,94.63
2022-12-08T03:02:01.739Z,94.15
2022-12-08T03:03:50.328Z,93.54
2022-12-08T03:05:26.639Z,94.23
2022-12-08T03:06:51.734Z,95.19
2022-12-08T03:08:16.902Z,95.09
2022-12-08T03:09:35.953Z,95.33
2022-12-08T03:11:05.413Z,95.98
2022-12-08T03:12:16.998Z,95.81
2022-12-08T03:13:40.793Z,96.15
2022-12-08T03:14:52.950Z,96.40
2022-12-08T03:15:56.826Z,96.29
2022-12-08T03:17:01.005Z,96.44
2022-12-08T03:18:06.848Z,95.97
2022-12-08T03:19:14.694Z,96.09
2022-12-08T03:20:22.013Z,96.15
2022-12-08T03:21:25.947Z,96.20
2022-12-08T03:22:29.612Z,96.48
2022-12-08T03:23:36.467Z,96.57
2022-12-08T03:24:42.430Z,96.70
2022-12-08T03:26:12.265Z,96.44
2022-12-08T03:27:21.375Z,96.54
2022-12-08T03:28:24.964Z,96.60
2022-12-08T03:29:28.036Z,96.55
2022-12-08T03:30:36.998Z,96.20
2022-12-08T03:31:45.953Z,96.34
2022-12-08T03:32:57.847Z,96.55
2022-12-08T03:34:03.128Z,96.45
2022-12-08T03:35:11.353Z,96.23
2022-12-08T03:36:15.176Z,95.67
2022-12-08T03:37:18.634Z,95.82
2022-12-08T03:38:22.405Z,95.91
2022-12-08T03:39:25.505Z,95.87
2022-12-08T03:40:28.336Z,95.58
2022-12-08T03:41:31.374Z,95.47
2022-12-08T03:42:34.405Z,95.06
2022-12-08T03:43:37.234Z,95.12
2022-12-08T03:44:40.007Z,95.33
2022-12-08T03:45:43.238Z,95.44
2022-12-08T03:46:46.294Z,95.54
2022-12-08T03:47:49.261Z,95.64
2022-12-08T03:48:52.379Z,95.09
2022-12-08T03:49:55.344Z,94.96
2022-12-08T03:50:58.600Z,95.29
2022-12-08T03:52:01.412Z,95.47
2022-12-08T03:53:04.270Z,95.46
2022-12-08T03:54:07.143Z,95.63
2022-12-08T03:55:10.362Z,95.67
2022-12-08T03:56:28.658Z,95.59
2022-12-08T03:57:35.217Z,95.33
2022-12-08T03:58:38.433Z,95.47
2022-12-08T03:59:41.385Z,95.54
2022-12-08T04:00:44.139Z,95.48
2022-12-08T04:01:47.107Z,95.30
2022-12-08T04:02:50.053Z,95.69
2022-12-08T04:03:54.019Z,95.80
2022-12-08T04:04:56.832Z,95.49
2022-12-08T04:05:59.575Z,95.11
2022-12-08T04:07:02.590Z,95.06
2022-12-08T04:08:05.883Z,94.50
2022-12-08T04:09:12.628Z,94.48
2022-12-08T04:10:16.996Z,94.97
2022-12-08T04:11:20.695Z,94.54
2022-12-08T04:12:23.756Z,94.46
2022-12-08T04:13:26.623Z,94.60
2022-12-08T04:14:29.479Z,94.68
2022-12-08T04:15:32.453Z,94.48
2022-12-08T04:16:35.619Z,93.98
2022-12-08T04:17:38.637Z,93.84
2022-12-08T04:18:41.558Z,93.91
2022-12-08T04:19:44.720Z,93.98
2022-12-08T04:20:47.524Z,93.97
2022-12-08T04:21:50.444Z,93.87
2022-12-08T04:22:53.363Z,93.79
2022-12-08T04:24:01.000Z,93.81
2022-12-08T04:25:04.403Z,94.36
2022-12-08T04:26:07.419Z,94.70
2022-12-08T04:27:10.362Z,94.25
2022-12-08T04:28:13.665Z,93.93
2022-12-08T04:29:17.213Z,94.25
2022-12-08T04:30:20.130Z,94.53
2022-12-08T04:31:23.116Z,94.58
2022-12-08T04:32:26.003Z,94.93
2022-12-08T04:33:29.175Z,95.24
2022-12-08T04:34:32.030Z,95.03
2022-12-08T04:35:34.927Z,94.86
2022-12-08T04:36:37.944Z,94.23
2022-12-08T04:37:40.815Z,93.95
2022-12-08T04:38:44.012Z,93.81
2022-12-08T04:39:47.120Z,94.19
2022-12-08T04:40:50.043Z,94.10
2022-12-08T04:41:53.028Z,94.15
2022-12-08T04:42:55.896Z,94.19
2022-12-08T04:43:58.837Z,94.55
2022-12-08T04:45:01.894Z,95.14
2022-12-08T04:46:09.593Z,95.26
2022-12-08T04:47:12.537Z,95.17
2022-12-08T04:48:16.036Z,94.99
2022-12-08T04:49:19.002Z,95.31
2022-12-08T04:50:22.037Z,95.47
2022-12-08T04:51:24.871Z,95.54
2022-12-08T04:52:28.023Z,95.70
2022-12-08T04:53:31.124Z,95.72
2022-12-08T04:54:33.908Z,96.04
2022-12-08T04:55:40.674Z,96.28
2022-12-08T04:56:43.669Z,96.41
2022-12-08T04:57:46.655Z,96.40
2022-12-08T04:58:49.494Z,95.96
2022-12-08T04:59:52.599Z,95.96
2022-12-08T05:00:55.660Z,96.00
2022-12-08T05:01:58.636Z,95.97
2022-12-08T05:03:01.671Z,95.70
2022-12-08T05:04:04.663Z,95.35
2022-12-08T05:05:08.088Z,95.05
2022-12-08T05:06:13.803Z,95.21
2022-12-08T05:07:16.961Z,95.15
2022-12-08T05:08:20.227Z,95.04
2022-12-08T05:09:23.667Z,95.28
2022-12-08T05:10:26.806Z,95.83
2022-12-08T05:11:29.719Z,95.96
2022-12-08T05:12:32.740Z,95.25
2022-12-08T05:13:35.660Z,95.37
2022-12-08T05:14:38.894Z,94.54
2022-12-08T05:15:41.851Z,94.88
2022-12-08T05:16:46.223Z,95.00
2022-12-08T05:17:49.212Z,94.77
2022-12-08T05:18:52.058Z,94.50
2022-12-08T05:19:54.938Z,94.43
2022-12-08T05:20:57.952Z,94.12
2022-12-08T05:22:00.718Z,93.57
2022-12-08T05:23:03.854Z,93.51
2022-12-08T05:24:06.877Z,93.46
2022-12-08T05:25:09.868Z,93.06
2022-12-08T05:26:13.757Z,93.66
2022-12-08T05:27:16.623Z,93.72
2022-12-08T05:28:40.679Z,93.60
2022-12-08T05:29:43.073Z,93.80
2022-12-08T05:30:45.978Z,93.49
2022-12-08T05:31:49.124Z,93.59
2022-12-08T05:32:52.047Z,94.22
2022-12-08T05:33:58.382Z,94.52
2022-12-08T05:35:04.005Z,94.24
2022-12-08T05:36:07.774Z,94.09
2022-12-08T05:37:10.730Z,93.94
2022-12-08T05:38:14.007Z,93.82
2022-12-08T05:39:16.892Z,93.72
2022-12-08T05:40:19.931Z,93.82
2022-12-08T05:41:23.166Z,94.04
2022-12-08T05:42:26.045Z,93.73
2022-12-08T05:43:29.392Z,93.60
2022-12-08T05:44:32.288Z,94.05
2022-12-08T05:45:35.326Z,93.44
2022-12-08T05:46:38.610Z,93.63
2022-12-08T05:47:41.530Z,93.82
2022-12-08T05:48:44.376Z,93.80
2022-12-08T05:49:47.278Z,93.60
2022-12-08T05:50:50.839Z,93.44
2022-12-08T05:51:53.573Z,92.99
2022-12-08T05:52:56.352Z,92.92
2022-12-08T05:53:59.527Z,93.47
2022-12-08T05:55:02.593Z,93.89
2022-12-08T05:56:11.112Z,94.19
2022-12-08T05:57:15.282Z,94.07
2022-12-08T05:58:20.841Z,93.46
2022-12-08T05:59:23.819Z,93.53
2022-12-08T06:00:26.956Z,93.97
2022-12-08T06:01:31.991Z,93.98
2022-12-08T06:02:36.063Z,94.08
2022-12-08T06:03:39.054Z,94.23
2022-12-08T06:04:42.240Z,94.79
2022-12-08T06:05:46.968Z,94.96
2022-12-08T06:06:50.063Z,95.07
2022-12-08T06:07:53.059Z,95.18
2022-12-08T06:08:56.063Z,94.89
2022-12-08T06:09:59.047Z,94.76
2022-12-08T06:11:02.428Z,94.45
2022-12-08T06:12:05.359Z,94.54
2022-12-08T06:13:08.840Z,94.54
2022-12-08T06:14:12.720Z,94.49
2022-12-08T06:15:15.683Z,94.48
2022-12-08T06:16:19.393Z,94.86
2022-12-08T06:17:22.133Z,94.48
2022-12-08T06:18:29.660Z,94.57
2022-12-08T06:19:35.953Z,94.49
2022-12-08T06:20:38.868Z,94.36
2022-12-08T06:21:41.775Z,94.86
2022-12-08T06:22:44.753Z,95.13
2022-12-08T06:23:53.207Z,95.13
2022-12-08T06:24:56.249Z,94.74
2022-12-08T06:26:11.121Z,94.92
2022-12-08T06:27:13.997Z,95.30
2022-12-08T06:28:17.142Z,94.64
2022-12-08T06:29:20.096Z,94.29
2022-12-08T06:30:23.056Z,94.48
2022-12-08T06:31:27.083Z,94.63
2022-12-08T06:32:30.041Z,94.83
2022-12-08T06:33:33.196Z,95.37
2022-12-08T06:34:36.025Z,95.29
2022-12-08T06:35:39.092Z,95.64
2022-12-08T06:36:41.951Z,95.75
2022-12-08T06:37:48.686Z,95.78
2022-12-08T06:38:52.014Z,95.82
2022-12-08T06:39:54.955Z,95.62
2022-12-08T06:40:59.116Z,95.30
2022-12-08T06:42:20.375Z,94.58
2022-12-08T06:43:23.891Z,94.50
2022-12-08T06:44:26.920Z,94.31
2022-12-08T06:45:29.777Z,93.90
2022-12-08T06:46:32.841Z,94.34
2022-12-08T06:47:35.742Z,94.59
2022-12-08T06:48:38.994Z,94.77
2022-12-08T06:49:42.101Z,95.03
2022-12-08T06:50:45.602Z,94.87
2022-12-08T06:51:48.463Z,94.94
2022-12-08T06:53:01.051Z,94.78
2022-12-08T06:54:07.962Z,94.41
2022-12-08T06:55:16.907Z,94.76
2022-12-08T06:56:33.852Z,94.66
2022-12-08T06:57:37.044Z,94.43
2022-12-08T06:58:40.137Z,95.12
2022-12-08T06:59:43.049Z,95.18
2022-12-08T07:00:46.824Z,95.07
2022-12-08T07:01:49.780Z,96.19
2022-12-08T07:02:52.784Z,95.87
2022-12-08T07:03:55.806Z,95.79
2022-12-08T07:04:58.646Z,95.77
2022-12-08T07:06:04.146Z,95.95
2022-12-08T07:07:08.120Z,96.04
2022-12-08T07:08:11.291Z,95.87
2022-12-08T07:09:14.243Z,95.11
2022-12-08T07:10:18.726Z,95.17
2022-12-08T07:11:22.716Z,95.16
2022-12-08T07:12:25.645Z,95.31
2022-12-08T07:13:28.450Z,95.70
2022-12-08T07:14:31.293Z,95.57
2022-12-08T07:15:34.229Z,95.47
2022-12-08T07:16:37.352Z,94.48
2022-12-08T07:17:40.609Z,94.67
2022-12-08T07:18:44.276Z,94.64
2022-12-08T07:19:47.430Z,93.99
2022-12-08T07:20:50.311Z,94.25
2022-12-08T07:21:53.408Z,94.42
2022-12-08T07:22:56.269Z,91.80
2022-12-08T07:23:59.110Z,92.54
2022-12-08T07:25:02.120Z,91.78
2022-12-08T07:26:08.585Z,90.00
2022-12-08T07:27:11.604Z,88.96
2022-12-08T07:28:14.800Z,88.85
2022-12-08T07:29:21.722Z,86.42
2022-12-08T07:30:28.987Z,86.26
2022-12-08T07:31:32.077Z,86.32
2022-12-08T07:32:38.125Z,85.12
2022-12-08T07:33:41.141Z,85.67
2022-12-08T07:34:47.027Z,82.88
2022-12-08T07:36:02.655Z,82.09
2022-12-08T07:37:05.587Z,81.90
2022-12-08T07:38:11.332Z,81.81
2022-12-08T07:39:14.352Z,81.92
2022-12-08T07:40:17.303Z,81.99
2022-12-08T07:41:23.640Z,80.56
2022-12-08T07:42:28.723Z,80.34
2022-12-08T07:43:31.979Z,79.77
2022-12-08T07:44:34.818Z,79.93
2022-12-08T07:45:41.803Z,80.15
2022-12-08T07:46:44.820Z,79.91
2022-12-08T07:47:47.779Z,79.92
2022-12-08T07:48:52.702Z,78.67
2022-12-08T07:49:55.522Z,78.26
2022-12-08T07:51:03.143Z,77.20
2022-12-08T07:52:06.029Z,76.76
2022-12-08T07:53:09.634Z,76.43
2022-12-08T07:54:13.288Z,76.13
2022-12-08T07:55:16.667Z,76.12
2022-12-08T07:56:19.974Z,76.68
2022-12-08T07:57:22.720Z,76.05
2022-12-08T07:58:26.654Z,75.95
2022-12-08T07:59:29.961Z,76.40
2022-12-08T08:00:32.909Z,76.32
2022-12-08T08:01:36.357Z,74.68
2022-12-08T08:02:40.133Z,75.52
2022-12-08T08:03:43.559Z,75.36
2022-12-08T08:04:50.819Z,75.25
2022-12-08T08:05:53.587Z,74.89
2022-12-08T08:06:56.694Z,74.38
2022-12-08T08:07:59.655Z,74.79
2022-12-08T08:09:02.957Z,74.03
2022-12-08T08:10:07.334Z,74.25
2022-12-08T08:11:18.956Z,74.06
2022-12-08T08:12:31.172Z,74.36
2022-12-08T08:13:34.773Z,74.15
2022-12-08T08:14:37.552Z,74.82
2022-12-08T08:15:40.937Z,74.35
2022-12-08T08:16:47.073Z,74.22
2022-12-08T08:17:54.044Z,74.26
2022-12-08T08:18:57.141Z,75.34
2022-12-08T08:20:00.872Z,75.91
2022-12-08T08:21:22.141Z,75.42
2022-12-08T08:22:27.633Z,74.49
2022-12-08T08:23:30.673Z,74.51
2022-12-08T08:24:33.510Z,74.53
2022-12-08T08:25:36.576Z,74.33
2022-12-08T08:26:39.677Z,73.89
2022-12-08T08:27:42.905Z,73.17
2022-12-08T08:28:46.302Z,72.76
2022-12-08T08:29:49.487Z,73.23
2022-12-08T08:30:52.609Z,72.40
2022-12-08T08:31:55.613Z,72.73
2022-12-08T08:32:58.500Z,73.14
2022-12-08T08:34:06.664Z,73.61
2022-12-08T08:35:10.468Z,73.26
2022-12-08T08:36:13.334Z,72.56
2022-12-08T08:37:16.356Z,71.74
2022-12-08T08:38:19.383Z,71.98
2022-12-08T08:39:22.678Z,72.36
2022-12-08T08:40:25.896Z,71.70
2022-12-08T08:41:29.150Z,71.30
2022-12-08T08:42:32.141Z,71.96
2022-12-08T08:43:38.549Z,72.35
2022-12-08T08:44:41.894Z,73.23
2022-12-08T08:45:44.829Z,74.13
2022-12-08T08:46:48.052Z,73.40
2022-12-08T08:47:54.724Z,72.18
2022-12-08T08:48:58.356Z,71.17
2022-12-08T08:50:01.836Z,71.41
2022-12-08T08:51:10.851Z,72.57
2022-12-08T08:52:13.633Z,71.87
2022-12-08T08:53:16.928Z,71.12
2022-12-08T08:54:19.798Z,71.70
2022-12-08T08:55:22.696Z,71.72
2022-12-08T08:56:25.961Z,71.36
2022-12-08T08:57:32.727Z,71.39
2022-12-08T08:58:35.570Z,71.76
2022-12-08T08:59:38.471Z,70.23
2022-12-08T09:00:41.463Z,70.07
2022-12-08T09:01:44.534Z,71.30
2022-12-08T09:02:47.537Z,71.46
2022-12-08T09:03:50.706Z,72.14
2022-12-08T09:04:53.744Z,71.74
2022-12-08T09:05:56.895Z,71.59
2022-12-08T09:07:00.641Z,72.62
2022-12-08T09:08:03.589Z,72.14
2022-12-08T09:09:06.575Z,71.76
2022-12-08T09:10:09.984Z,72.04
2022-12-08T09:11:13.816Z,72.00
2022-12-08T09:12:16.832Z,72.60
2022-12-08T09:13:19.619Z,72.72
2022-12-08T09:14:23.417Z,72.91
2022-12-08T09:15:26.268Z,73.00
2022-12-08T09:16:29.188Z,72.12
2022-12-08T09:17:32.677Z,73.76
2022-12-08T09:18:35.856Z,72.63
2022-12-08T09:19:38.735Z,73.24
2022-12-08T09:20:41.697Z,73.33
2022-12-08T09:21:44.760Z,73.64
2022-12-08T09:22:47.985Z,73.92
2022-12-08T09:23:53.128Z,73.33
2022-12-08T09:24:56.173Z,73.04
2022-12-08T09:25:59.138Z,73.32
2022-12-08T09:27:02.042Z,73.08
2022-12-08T09:28:05.004Z,73.28
2022-12-08T09:29:08.281Z,73.26
2022-12-08T09:30:11.422Z,73.64
2022-12-08T09:31:15.106Z,74.44
2022-12-08T09:32:19.099Z,74.38
2022-12-08T09:33:21.941Z,75.07
2022-12-08T09:34:24.874Z,73.84
2022-12-08T09:35:27.760Z,73.56
2022-12-08T09:36:31.412Z,73.63
2022-12-08T09:37:35.319Z,74.76
2022-12-08T09:38:39.378Z,75.30
2022-12-08T09:39:42.337Z,74.05
2022-12-08T09:40:53.943Z,73.30
2022-12-08T09:42:05.054Z,72.50
2022-12-08T09:43:40.166Z,72.63
2022-12-08T09:45:02.873Z,73.15
2022-12-08T09:46:10.061Z,73.08
2022-12-08T09:47:24.430Z,73.66
2022-12-08T09:48:36.771Z,74.45
2022-12-08T09:50:10.996Z,73.09
2022-12-08T09:51:16.524Z,72.88
2022-12-08T09:52:25.741Z,73.28
2022-12-08T09:53:40.869Z,72.99
2022-12-08T09:54:43.784Z,71.96
2022-12-08T09:56:02.292Z,72.45
2022-12-08T09:57:15.275Z,72.74
2022-12-08T09:58:28.041Z,73.90
2022-12-08T09:59:33.859Z,72.47
2022-12-08T10:00:36.823Z,71.51
2022-12-08T10:01:43.792Z,72.18
2022-12-08T10:02:47.941Z,73.38
2022-12-08T10:03:50.952Z,72.69
2022-12-08T10:04:59.968Z,72.36
2022-12-08T10:06:15.095Z,72.39
2022-12-08T10:07:27.684Z,72.58
2022-12-08T10:09:00.481Z,72.81
2022-12-08T10:10:24.564Z,71.93
2022-12-08T10:11:39.879Z,72.94
2022-12-08T10:13:04.823Z,72.66
2022-12-08T10:14:16.300Z,72.46
2022-12-08T10:15:42.163Z,72.36
2022-12-08T10:16:50.160Z,72.24
2022-12-08T10:17:54.790Z,72.70
2022-12-08T10:19:22.611Z,72.63
2022-12-08T10:20:31.006Z,73.30
2022-12-08T10:21:33.990Z,73.34
2022-12-08T10:22:42.890Z,73.42
2022-12-08T10:23:55.758Z,72.04
2022-12-08T10:25:05.628Z,72.20
2022-12-08T10:26:18.383Z,72.33
2022-12-08T10:27:21.680Z,70.52
2022-12-08T10:28:24.643Z,71.24
2022-12-08T10:29:28.244Z,71.20
2022-12-08T10:30:32.347Z,70.82
2022-12-08T10:31:35.529Z,70.92
2022-12-08T10:32:39.777Z,71.12
2022-12-08T10:33:42.829Z,71.58
2022-12-08T10:35:04.191Z,71.30
2022-12-08T10:36:07.418Z,70.79
2022-12-08T10:37:10.854Z,70.87
2022-12-08T10:38:21.848Z,71.54
2022-12-08T10:39:37.572Z,70.73
2022-12-08T10:40:46.011Z,70.35
2022-12-08T10:41:51.646Z,69.61
2022-12-08T10:42:58.524Z,70.03
2022-12-08T10:44:02.263Z,70.29
2022-12-08T10:45:17.989Z,70.15
2022-12-08T10:46:26.092Z,70.15
2022-12-08T10:47:30.761Z,70.32
2022-12-08T10:48:34.044Z,69.47
2022-12-08T10:49:39.114Z,70.00
2022-12-08T10:50:53.248Z,69.49
2022-12-08T10:51:56.274Z,69.23
2022-12-08T10:53:15.029Z,68.80
2022-12-08T10:54:37.635Z,68.92
2022-12-08T10:55:44.589Z,69.01
2022-12-08T10:56:55.463Z,68.66
2022-12-08T10:57:58.196Z,69.61
2022-12-08T10:59:19.657Z,68.09
2022-12-08T11:00:26.970Z,68.18
2022-12-08T11:01:36.912Z,67.80
2022-12-08T11:03:14.235Z,67.54
2022-12-08T11:04:39.797Z,68.33
2022-12-08T11:05:42.669Z,67.97
2022-12-08T11:06:46.798Z,65.91
2022-12-08T11:07:54.077Z,66.72
2022-12-08T11:09:00.329Z,67.07
2022-12-08T11:10:03.827Z,66.25
2022-12-08T11:11:07.689Z,66.52
2022-12-08T11:12:17.982Z,66.76
2022-12-08T11:13:26.847Z,66.81
2022-12-08T11:14:32.798Z,66.56
2022-12-08T11:15:39.453Z,66.16
2022-12-08T11:16:43.386Z,65.16
2022-12-08T11:17:52.199Z,65.87
2022-12-08T11:18:59.425Z,65.83
2022-12-08T11:20:20.793Z,65.58
2022-12-08T11:21:35.594Z,65.75
2022-12-08T11:22:42.087Z,65.15
2022-12-08T11:23:50.468Z,65.84
2022-12-08T11:25:10.877Z,66.04
2022-12-08T11:26:22.616Z,66.63
2022-12-08T11:27:26.117Z,66.38
2022-12-08T11:28:29.460Z,65.64
2022-12-08T11:29:35.939Z,65.20
2022-12-08T11:30:44.332Z,65.22
2022-12-08T11:32:02.112Z,65.52
2022-12-08T11:33:21.721Z,66.48
2022-12-08T11:34:34.872Z,65.27
2022-12-08T11:35:41.237Z,65.61
2022-12-08T11:36:44.986Z,65.49
2022-12-08T11:37:47.814Z,65.36
2022-12-08T11:38:56.017Z,66.08
2022-12-08T11:40:05.100Z,65.55
2022-12-08T11:41:18.364Z,65.76
2022-12-08T11:42:26.115Z,65.87
2022-12-08T11:43:46.304Z,66.15
2022-12-08T11:45:01.823Z,67.40
2022-12-08T11:46:14.929Z,67.40
2022-12-08T11:47:40.270Z,66.15
2022-12-08T11:49:09.333Z,66.70
2022-12-08T11:50:29.401Z,66.69
2022-12-08T11:51:40.290Z,66.99
2022-12-08T11:52:48.537Z,66.93
2022-12-08T11:54:15.868Z,67.07
2022-12-08T11:55:37.068Z,66.86
2022-12-08T11:56:46.253Z,66.29
2022-12-08T11:57:49.268Z,66.76
2022-12-08T11:58:59.536Z,66.32
2022-12-08T12:00:04.051Z,66.83
2022-12-08T12:01:18.761Z,66.04
2022-12-08T12:02:30.037Z,65.56
2022-12-08T12:03:42.107Z,67.02
2022-12-08T12:04:45.501Z,66.80
2022-12-08T12:06:18.595Z,67.86
2022-12-08T12:07:33.142Z,69.24
2022-12-08T12:09:14.610Z,66.77
2022-12-08T12:10:26.854Z,66.74
2022-12-08T12:12:09.887Z,67.22
2022-12-08T12:13:48.197Z,67.96
2022-12-08T12:15:28.188Z,68.14
2022-12-08T12:16:51.642Z,67.26
2022-12-08T12:18:12.011Z,66.76
2022-12-08T12:19:22.006Z,66.97
2022-12-08T12:20:32.267Z,66.76
2022-12-08T12:21:38.457Z,66.46
2022-12-08T12:22:45.165Z,66.86
2022-12-08T12:23:57.136Z,67.04
2022-12-08T12:25:00.785Z,66.11
2022-12-08T12:26:07.488Z,65.49
2022-12-08T12:27:16.473Z,65.18
2022-12-08T12:28:20.904Z,64.46
2022-12-08T12:29:27.924Z,64.79
2022-12-08T12:31:01.581Z,63.56
2022-12-08T12:32:10.678Z,63.87
2022-12-08T12:33:15.871Z,64.34
2022-12-08T12:34:24.319Z,63.90
2022-12-08T12:35:41.694Z,64.40
2022-12-08T12:36:53.128Z,63.92
2022-12-08T12:38:01.064Z,64.49
2022-12-08T12:39:08.856Z,64.43
2022-12-08T12:40:20.613Z,64.92
2022-12-08T12:41:27.370Z,64.04
2022-12-08T12:42:45.824Z,65.11
2022-12-08T12:44:09.290Z,66.44
2022-12-08T12:45:23.932Z,65.51
2022-12-08T12:46:39.240Z,64.37
2022-12-08T12:47:56.557Z,65.05
2022-12-08T12:49:38.302Z,65.42
2022-12-08T12:50:52.077Z,66.32
2022-12-08T12:51:55.828Z,66.36
2022-12-08T12:53:20.168Z,66.54
2022-12-08T12:54:28.510Z,67.02
2022-12-08T12:55:46.655Z,66.83
2022-12-08T12:57:05.083Z,66.47
2022-12-08T12:58:22.989Z,66.65
2022-12-08T12:59:56.101Z,67.27
2022-12-08T13:01:14.156Z,67.69
2022-12-08T13:02:40.192Z,68.08
2022-12-08T13:03:52.456Z,67.63
2022-12-08T13:05:33.265Z,68.35
2022-12-08T13:06:42.473Z,68.29
2022-12-08T13:08:03.949Z,68.42
2022-12-08T13:09:07.768Z,68.15
2022-12-08T13:10:16.480Z,67.74
2022-12-08T13:11:20.116Z,67.87
2022-12-08T13:12:25.187Z,68.17
2022-12-08T13:13:29.335Z,67.88
2022-12-08T13:14:38.440Z,67.72
2022-12-08T13:15:55.137Z,68.42
2022-12-08T13:17:00.785Z,68.27
2022-12-08T13:18:04.468Z,67.33
2022-12-08T13:19:16.583Z,67.75
2022-12-08T13:20:23.539Z,67.42
2022-12-08T13:21:33.752Z,67.60
2022-12-08T13:23:24.529Z,67.89
2022-12-08T13:24:30.990Z,68.13
2022-12-08T13:25:40.017Z,67.75
2022-12-08T13:26:48.850Z,67.36
2022-12-08T13:27:55.554Z,67.05
2022-12-08T13:29:07.392Z,67.13
2022-12-08T13:30:41.473Z,67.71
2022-12-08T13:31:56.379Z,68.58
2022-12-08T13:33:18.517Z,68.87
2022-12-08T13:34:30.741Z,68.35
2022-12-08T13:35:33.861Z,67.49
2022-12-08T13:36:43.575Z,67.93
2022-12-08T13:37:54.978Z,69.35
2022-12-08T13:39:00.090Z,70.47
2022-12-08T13:40:15.318Z,70.98
2022-12-08T13:41:22.822Z,71.39
2022-12-08T13:42:48.691Z,72.41
2022-12-08T13:46:12.132Z,72.67
2022-12-08T13:47:24.729Z,72.21
2022-12-08T13:55:59.021Z,75.72
2022-12-08T13:57:37.101Z,75.10
2022-12-08T13:58:40.572Z,74.20
2022-12-08T13:59:45.490Z,75.22
2022-12-08T14:01:22.442Z,76.13
2022-12-08T14:02:33.444Z,77.46
2022-12-08T14:05:35.176Z,76.01
2022-12-08T14:06:49.121Z,76.46
2022-12-08T14:07:55.607Z,76.86
2022-12-08T14:09:09.943Z,77.32
2022-12-08T14:10:22.865Z,77.38
2022-12-08T14:11:35.602Z,76.53
2022-12-08T14:12:39.495Z,76.51
2022-12-08T14:13:42.567Z,77.42
2022-12-08T14:15:03.777Z,78.15
2022-12-08T14:16:15.996Z,78.31
2022-12-08T14:17:24.484Z,78.46
2022-12-08T14:18:31.149Z,75.85
2022-12-08T14:19:35.321Z,74.90
2022-12-08T14:21:12.199Z,75.55
2022-12-08T14:22:02.365Z,76.68
2022-12-08T14:23:07.658Z,78.84
2022-12-08T14:24:11.759Z,79.12
2022-12-08T14:25:16.350Z,80.09
2022-12-08T14:26:19.231Z,80.49
2022-12-08T14:27:25.962Z,80.24
2022-12-08T14:28:28.993Z,80.22
2022-12-08T14:29:42.291Z,80.44
2022-12-08T14:30:45.487Z,80.56
2022-12-08T14:31:48.678Z,80.45
2022-12-08T14:32:55.284Z,80.53
2022-12-08T14:33:58.236Z,80.05
2022-12-08T14:35:07.486Z,80.33
2022-12-08T14:36:14.864Z,75.91
2022-12-08T14:37:18.256Z,76.69
2022-12-08T14:38:28.951Z,77.55
2022-12-08T14:39:35.090Z,77.97
2022-12-08T14:40:59.303Z,78.22
2022-12-08T14:42:03.864Z,78.88
2022-12-08T14:43:21.147Z,76.96
2022-12-08T14:44:24.943Z,77.34